sensor_id;sensor_type;location;lat;lon;timestamp;P1;durP1;ratioP1;P2;durP2;ratioP2
21305;SDS011;10812;51.838;5.838;2023-09-30T00:00:59;13.53;;;5.77;;
21305;SDS011;10812;51.838;5.838;2023-09-30T00:03:28;12.57;;;5.50;;
21305;SDS011;10812;51.838;5.838;2023-09-30T00:05:56;12.27;;;5.70;;
21305;SDS011;10812;51.838;5.838;2023-09-30T00:08:24;10.80;;;5.27;;
21305;SDS011;10812;51.838;5.838;2023-09-30T00:10:53;11.67;;;5.90;;
21305;SDS011;10812;51.838;5.838;2023-09-30T00:13:23;11.73;;;6.20;;
21305;SDS011;10812;51.838;5.838;2023-09-30T00:15:51;15.40;;;6.27;;
21305;SDS011;10812;51.838;5.838;2023-09-30T00:18:19;24.43;;;6.13;;
21305;SDS011;10812;51.838;5.838;2023-09-30T00:20:47;13.00;;;5.97;;
21305;SDS011;10812;51.838;5.838;2023-09-30T00:23:15;12.57;;;5.90;;
21305;SDS011;10812;51.838;5.838;2023-09-30T00:25:48;11.90;;;6.30;;
21305;SDS011;10812;51.838;5.838;2023-09-30T00:35:52;10.20;;;5.67;;
21305;SDS011;10812;51.838;5.838;2023-09-30T00:38:20;14.10;;;6.23;;
21305;SDS011;10812;51.838;5.838;2023-09-30T00:40:50;18.17;;;7.10;;
21305;SDS011;10812;51.838;5.838;2023-09-30T00:43:18;15.47;;;7.13;;
21305;SDS011;10812;51.838;5.838;2023-09-30T00:45:47;11.33;;;6.23;;
21305;SDS011;10812;51.838;5.838;2023-09-30T00:48:16;8.43;;;6.27;;
21305;SDS011;10812;51.838;5.838;2023-09-30T00:50:44;14.80;;;7.20;;
21305;SDS011;10812;51.838;5.838;2023-09-30T00:53:14;12.63;;;6.90;;
21305;SDS011;10812;51.838;5.838;2023-09-30T00:55:42;11.90;;;6.13;;
21305;SDS011;10812;51.838;5.838;2023-09-30T00:58:10;11.97;;;6.23;;
21305;SDS011;10812;51.838;5.838;2023-09-30T01:00:39;12.30;;;6.93;;
21305;SDS011;10812;51.838;5.838;2023-09-30T01:06:01;8.80;;;5.67;;
21305;SDS011;10812;51.838;5.838;2023-09-30T01:08:29;14.87;;;8.17;;
21305;SDS011;10812;51.838;5.838;2023-09-30T01:10:59;16.60;;;7.07;;
21305;SDS011;10812;51.838;5.838;2023-09-30T01:13:31;11.43;;;6.83;;
21305;SDS011;10812;51.838;5.838;2023-09-30T01:16:02;16.97;;;7.73;;
21305;SDS011;10812;51.838;5.838;2023-09-30T01:18:31;14.63;;;6.80;;
21305;SDS011;10812;51.838;5.838;2023-09-30T01:21:01;10.83;;;7.43;;
21305;SDS011;10812;51.838;5.838;2023-09-30T01:23:33;13.67;;;7.13;;
21305;SDS011;10812;51.838;5.838;2023-09-30T01:26:02;15.37;;;7.90;;
21305;SDS011;10812;51.838;5.838;2023-09-30T01:28:31;15.20;;;7.60;;
21305;SDS011;10812;51.838;5.838;2023-09-30T01:31:00;15.03;;;7.63;;
21305;SDS011;10812;51.838;5.838;2023-09-30T01:33:28;11.80;;;6.70;;
21305;SDS011;10812;51.838;5.838;2023-09-30T01:35:57;12.97;;;7.33;;
21305;SDS011;10812;51.838;5.838;2023-09-30T01:38:25;11.63;;;7.43;;
21305;SDS011;10812;51.838;5.838;2023-09-30T01:40:55;12.77;;;7.10;;
21305;SDS011;10812;51.838;5.838;2023-09-30T01:43:26;12.17;;;7.23;;
21305;SDS011;10812;51.838;5.838;2023-09-30T01:49:41;12.30;;;7.83;;
21305;SDS011;10812;51.838;5.838;2023-09-30T01:52:09;15.97;;;6.97;;
21305;SDS011;10812;51.838;5.838;2023-09-30T01:58:05;16.40;;;8.30;;
21305;SDS011;10812;51.838;5.838;2023-09-30T02:00:33;16.17;;;8.60;;
21305;SDS011;10812;51.838;5.838;2023-09-30T02:03:01;12.80;;;7.30;;
21305;SDS011;10812;51.838;5.838;2023-09-30T02:05:30;16.93;;;8.53;;
21305;SDS011;10812;51.838;5.838;2023-09-30T02:07:58;13.13;;;7.50;;
21305;SDS011;10812;51.838;5.838;2023-09-30T02:10:26;11.47;;;7.57;;
21305;SDS011;10812;51.838;5.838;2023-09-30T02:12:54;15.40;;;8.33;;
21305;SDS011;10812;51.838;5.838;2023-09-30T02:15:24;10.97;;;7.37;;
21305;SDS011;10812;51.838;5.838;2023-09-30T02:17:52;14.83;;;8.70;;
21305;SDS011;10812;51.838;5.838;2023-09-30T02:23:26;12.60;;;7.93;;
21305;SDS011;10812;51.838;5.838;2023-09-30T02:25:54;13.20;;;8.67;;
21305;SDS011;10812;51.838;5.838;2023-09-30T02:32:11;18.37;;;8.73;;
21305;SDS011;10812;51.838;5.838;2023-09-30T02:34:40;14.63;;;8.33;;
21305;SDS011;10812;51.838;5.838;2023-09-30T02:37:09;16.30;;;8.63;;
21305;SDS011;10812;51.838;5.838;2023-09-30T02:39:37;13.77;;;8.70;;
21305;SDS011;10812;51.838;5.838;2023-09-30T02:42:05;17.73;;;8.87;;
21305;SDS011;10812;51.838;5.838;2023-09-30T02:44:33;17.67;;;8.43;;
21305;SDS011;10812;51.838;5.838;2023-09-30T02:47:20;18.23;;;9.50;;
21305;SDS011;10812;51.838;5.838;2023-09-30T02:49:48;16.30;;;9.60;;
21305;SDS011;10812;51.838;5.838;2023-09-30T02:52:16;17.83;;;9.73;;
21305;SDS011;10812;51.838;5.838;2023-09-30T02:54:44;18.70;;;9.90;;
21305;SDS011;10812;51.838;5.838;2023-09-30T02:57:13;15.40;;;10.00;;
21305;SDS011;10812;51.838;5.838;2023-09-30T02:59:41;16.83;;;9.67;;
21305;SDS011;10812;51.838;5.838;2023-09-30T03:07:35;16.10;;;9.40;;
21305;SDS011;10812;51.838;5.838;2023-09-30T03:10:04;15.00;;;10.43;;
21305;SDS011;10812;51.838;5.838;2023-09-30T03:15:22;17.70;;;9.70;;
21305;SDS011;10812;51.838;5.838;2023-09-30T03:17:50;16.67;;;10.07;;
21305;SDS011;10812;51.838;5.838;2023-09-30T03:20:28;17.10;;;10.77;;
21305;SDS011;10812;51.838;5.838;2023-09-30T03:22:58;16.43;;;10.37;;
21305;SDS011;10812;51.838;5.838;2023-09-30T03:25:28;18.07;;;11.20;;
21305;SDS011;10812;51.838;5.838;2023-09-30T03:27:56;14.80;;;10.30;;
21305;SDS011;10812;51.838;5.838;2023-09-30T03:30:25;18.67;;;11.13;;
21305;SDS011;10812;51.838;5.838;2023-09-30T03:32:53;16.87;;;9.97;;
21305;SDS011;10812;51.838;5.838;2023-09-30T03:39:10;14.67;;;10.23;;
21305;SDS011;10812;51.838;5.838;2023-09-30T03:48:24;15.97;;;10.77;;
21305;SDS011;10812;51.838;5.838;2023-09-30T03:50:52;18.07;;;11.10;;
21305;SDS011;10812;51.838;5.838;2023-09-30T03:53:20;16.70;;;10.63;;
21305;SDS011;10812;51.838;5.838;2023-09-30T03:55:53;16.40;;;9.90;;
21305;SDS011;10812;51.838;5.838;2023-09-30T03:58:21;16.83;;;10.07;;
21305;SDS011;10812;51.838;5.838;2023-09-30T04:00:49;15.67;;;9.90;;
21305;SDS011;10812;51.838;5.838;2023-09-30T04:03:18;15.33;;;10.53;;
21305;SDS011;10812;51.838;5.838;2023-09-30T04:05:47;13.53;;;9.50;;
21305;SDS011;10812;51.838;5.838;2023-09-30T04:08:17;19.93;;;10.67;;
21305;SDS011;10812;51.838;5.838;2023-09-30T04:10:45;16.10;;;10.30;;
21305;SDS011;10812;51.838;5.838;2023-09-30T04:13:15;16.67;;;10.07;;
21305;SDS011;10812;51.838;5.838;2023-09-30T04:15:43;15.83;;;10.37;;
21305;SDS011;10812;51.838;5.838;2023-09-30T04:18:15;18.07;;;10.43;;
21305;SDS011;10812;51.838;5.838;2023-09-30T04:20:46;16.53;;;10.10;;
21305;SDS011;10812;51.838;5.838;2023-09-30T04:23:14;15.30;;;9.73;;
21305;SDS011;10812;51.838;5.838;2023-09-30T04:25:42;14.43;;;9.93;;
21305;SDS011;10812;51.838;5.838;2023-09-30T04:28:10;13.23;;;9.40;;
21305;SDS011;10812;51.838;5.838;2023-09-30T04:30:41;14.20;;;9.67;;
21305;SDS011;10812;51.838;5.838;2023-09-30T04:33:09;17.40;;;10.10;;
21305;SDS011;10812;51.838;5.838;2023-09-30T04:35:39;16.17;;;10.70;;
21305;SDS011;10812;51.838;5.838;2023-09-30T04:38:07;15.60;;;9.50;;
21305;SDS011;10812;51.838;5.838;2023-09-30T04:40:35;16.27;;;10.37;;
21305;SDS011;10812;51.838;5.838;2023-09-30T04:43:04;15.80;;;10.40;;
21305;SDS011;10812;51.838;5.838;2023-09-30T04:45:32;17.77;;;10.10;;
21305;SDS011;10812;51.838;5.838;2023-09-30T04:48:02;16.77;;;10.70;;
21305;SDS011;10812;51.838;5.838;2023-09-30T04:50:30;16.20;;;10.53;;
21305;SDS011;10812;51.838;5.838;2023-09-30T04:52:58;15.60;;;10.07;;
21305;SDS011;10812;51.838;5.838;2023-09-30T04:55:27;18.13;;;10.30;;
21305;SDS011;10812;51.838;5.838;2023-09-30T04:57:55;14.33;;;9.83;;
21305;SDS011;10812;51.838;5.838;2023-09-30T05:00:23;15.47;;;10.20;;
21305;SDS011;10812;51.838;5.838;2023-09-30T05:02:52;15.17;;;9.87;;
21305;SDS011;10812;51.838;5.838;2023-09-30T05:05:24;13.97;;;10.03;;
21305;SDS011;10812;51.838;5.838;2023-09-30T05:07:52;15.37;;;10.30;;
21305;SDS011;10812;51.838;5.838;2023-09-30T05:10:20;13.90;;;10.30;;
21305;SDS011;10812;51.838;5.838;2023-09-30T05:12:48;17.17;;;9.83;;
21305;SDS011;10812;51.838;5.838;2023-09-30T05:15:21;18.00;;;9.53;;
21305;SDS011;10812;51.838;5.838;2023-09-30T05:17:49;17.00;;;10.50;;
21305;SDS011;10812;51.838;5.838;2023-09-30T05:20:17;20.77;;;11.07;;
21305;SDS011;10812;51.838;5.838;2023-09-30T05:22:47;17.03;;;11.00;;
21305;SDS011;10812;51.838;5.838;2023-09-30T05:25:16;16.50;;;10.20;;
21305;SDS011;10812;51.838;5.838;2023-09-30T05:27:45;16.87;;;11.67;;
21305;SDS011;10812;51.838;5.838;2023-09-30T05:30:15;15.20;;;10.07;;
21305;SDS011;10812;51.838;5.838;2023-09-30T05:32:45;15.20;;;10.03;;
21305;SDS011;10812;51.838;5.838;2023-09-30T05:35:14;13.50;;;9.47;;
21305;SDS011;10812;51.838;5.838;2023-09-30T05:37:44;15.97;;;10.23;;
21305;SDS011;10812;51.838;5.838;2023-09-30T05:40:14;12.90;;;9.30;;
21305;SDS011;10812;51.838;5.838;2023-09-30T05:42:49;16.27;;;10.93;;
21305;SDS011;10812;51.838;5.838;2023-09-30T05:45:18;17.90;;;11.77;;
21305;SDS011;10812;51.838;5.838;2023-09-30T05:47:47;18.10;;;10.87;;
21305;SDS011;10812;51.838;5.838;2023-09-30T05:50:17;16.77;;;10.77;;
21305;SDS011;10812;51.838;5.838;2023-09-30T05:52:50;13.60;;;10.33;;
21305;SDS011;10812;51.838;5.838;2023-09-30T05:55:21;16.53;;;10.10;;
21305;SDS011;10812;51.838;5.838;2023-09-30T05:57:50;14.87;;;9.90;;
21305;SDS011;10812;51.838;5.838;2023-09-30T06:00:20;14.07;;;9.77;;
21305;SDS011;10812;51.838;5.838;2023-09-30T06:02:49;15.20;;;10.37;;
21305;SDS011;10812;51.838;5.838;2023-09-30T06:05:18;15.13;;;9.87;;
21305;SDS011;10812;51.838;5.838;2023-09-30T06:07:46;14.87;;;9.63;;
21305;SDS011;10812;51.838;5.838;2023-09-30T06:10:14;15.43;;;9.47;;
21305;SDS011;10812;51.838;5.838;2023-09-30T06:12:46;15.07;;;9.30;;
21305;SDS011;10812;51.838;5.838;2023-09-30T06:15:15;16.07;;;10.37;;
21305;SDS011;10812;51.838;5.838;2023-09-30T06:17:48;15.30;;;9.60;;
21305;SDS011;10812;51.838;5.838;2023-09-30T06:20:18;17.13;;;10.10;;
21305;SDS011;10812;51.838;5.838;2023-09-30T06:22:49;13.30;;;9.53;;
21305;SDS011;10812;51.838;5.838;2023-09-30T06:25:17;14.00;;;9.80;;
21305;SDS011;10812;51.838;5.838;2023-09-30T06:27:48;19.93;;;10.40;;
21305;SDS011;10812;51.838;5.838;2023-09-30T06:30:16;18.17;;;10.77;;
21305;SDS011;10812;51.838;5.838;2023-09-30T06:32:47;15.57;;;9.87;;
21305;SDS011;10812;51.838;5.838;2023-09-30T06:35:16;21.77;;;11.83;;
21305;SDS011;10812;51.838;5.838;2023-09-30T06:37:48;18.10;;;10.53;;
21305;SDS011;10812;51.838;5.838;2023-09-30T06:40:16;18.40;;;10.87;;
21305;SDS011;10812;51.838;5.838;2023-09-30T06:42:46;12.70;;;6.93;;
21305;SDS011;10812;51.838;5.838;2023-09-30T06:45:14;8.15;;;6.53;;
21305;SDS011;10812;51.838;5.838;2023-09-30T06:47:43;10.77;;;7.20;;
21305;SDS011;10812;51.838;5.838;2023-09-30T06:50:12;7.60;;;5.97;;
21305;SDS011;10812;51.838;5.838;2023-09-30T06:52:43;9.48;;;6.22;;
21305;SDS011;10812;51.838;5.838;2023-09-30T06:55:14;12.18;;;6.07;;
21305;SDS011;10812;51.838;5.838;2023-09-30T06:57:43;11.98;;;6.95;;
21305;SDS011;10812;51.838;5.838;2023-09-30T07:00:13;10.93;;;6.78;;
21305;SDS011;10812;51.838;5.838;2023-09-30T07:02:43;10.05;;;6.10;;
21305;SDS011;10812;51.838;5.838;2023-09-30T07:05:13;8.68;;;6.60;;
21305;SDS011;10812;51.838;5.838;2023-09-30T07:07:41;7.72;;;5.72;;
21305;SDS011;10812;51.838;5.838;2023-09-30T07:10:10;9.15;;;5.45;;
21305;SDS011;10812;51.838;5.838;2023-09-30T07:12:39;10.02;;;6.28;;
21305;SDS011;10812;51.838;5.838;2023-09-30T07:15:08;9.15;;;6.28;;
21305;SDS011;10812;51.838;5.838;2023-09-30T07:17:38;9.75;;;6.68;;
21305;SDS011;10812;51.838;5.838;2023-09-30T07:20:11;13.10;;;7.03;;
21305;SDS011;10812;51.838;5.838;2023-09-30T07:22:39;9.70;;;6.38;;
21305;SDS011;10812;51.838;5.838;2023-09-30T07:25:28;11.75;;;6.50;;
21305;SDS011;10812;51.838;5.838;2023-09-30T07:27:58;12.45;;;7.20;;
21305;SDS011;10812;51.838;5.838;2023-09-30T07:30:27;13.93;;;6.85;;
21305;SDS011;10812;51.838;5.838;2023-09-30T07:32:56;12.02;;;6.80;;
21305;SDS011;10812;51.838;5.838;2023-09-30T07:35:25;12.13;;;6.97;;
21305;SDS011;10812;51.838;5.838;2023-09-30T07:37:53;10.85;;;7.25;;
21305;SDS011;10812;51.838;5.838;2023-09-30T07:40:20;10.40;;;7.03;;
21305;SDS011;10812;51.838;5.838;2023-09-30T07:42:49;11.88;;;7.78;;
21305;SDS011;10812;51.838;5.838;2023-09-30T07:45:18;14.32;;;7.88;;
21305;SDS011;10812;51.838;5.838;2023-09-30T07:47:47;10.98;;;6.57;;
21305;SDS011;10812;51.838;5.838;2023-09-30T07:50:17;9.30;;;6.72;;
21305;SDS011;10812;51.838;5.838;2023-09-30T07:52:45;10.50;;;6.95;;
21305;SDS011;10812;51.838;5.838;2023-09-30T07:55:13;11.30;;;6.72;;
21305;SDS011;10812;51.838;5.838;2023-09-30T07:57:42;8.90;;;6.82;;
21305;SDS011;10812;51.838;5.838;2023-09-30T08:00:11;12.80;;;8.20;;
21305;SDS011;10812;51.838;5.838;2023-09-30T08:02:42;13.15;;;6.43;;
21305;SDS011;10812;51.838;5.838;2023-09-30T08:08:38;10.63;;;5.90;;
21305;SDS011;10812;51.838;5.838;2023-09-30T08:11:07;12.00;;;7.10;;
21305;SDS011;10812;51.838;5.838;2023-09-30T08:13:35;9.52;;;6.47;;
21305;SDS011;10812;51.838;5.838;2023-09-30T08:16:03;11.35;;;6.70;;
21305;SDS011;10812;51.838;5.838;2023-09-30T08:18:31;12.40;;;6.63;;
21305;SDS011;10812;51.838;5.838;2023-09-30T08:20:59;9.93;;;6.82;;
21305;SDS011;10812;51.838;5.838;2023-09-30T08:23:27;13.75;;;7.32;;
21305;SDS011;10812;51.838;5.838;2023-09-30T08:25:59;10.43;;;7.00;;
21305;SDS011;10812;51.838;5.838;2023-09-30T08:28:27;11.43;;;6.88;;
21305;SDS011;10812;51.838;5.838;2023-09-30T08:30:55;11.93;;;5.80;;
21305;SDS011;10812;51.838;5.838;2023-09-30T08:33:29;12.15;;;5.55;;
21305;SDS011;10812;51.838;5.838;2023-09-30T08:36:01;8.90;;;5.57;;
21305;SDS011;10812;51.838;5.838;2023-09-30T08:38:33;10.63;;;6.50;;
21305;SDS011;10812;51.838;5.838;2023-09-30T08:41:03;8.70;;;5.10;;
21305;SDS011;10812;51.838;5.838;2023-09-30T08:43:34;12.30;;;5.78;;
21305;SDS011;10812;51.838;5.838;2023-09-30T08:46:07;12.13;;;5.55;;
21305;SDS011;10812;51.838;5.838;2023-09-30T08:48:35;11.65;;;5.55;;
21305;SDS011;10812;51.838;5.838;2023-09-30T08:51:03;10.48;;;5.80;;
21305;SDS011;10812;51.838;5.838;2023-09-30T08:53:33;11.80;;;5.93;;
21305;SDS011;10812;51.838;5.838;2023-09-30T08:56:04;8.52;;;5.85;;
21305;SDS011;10812;51.838;5.838;2023-09-30T08:58:36;9.70;;;5.57;;
21305;SDS011;10812;51.838;5.838;2023-09-30T09:01:05;7.93;;;5.07;;
21305;SDS011;10812;51.838;5.838;2023-09-30T09:03:36;11.55;;;5.68;;
21305;SDS011;10812;51.838;5.838;2023-09-30T09:06:05;9.15;;;5.93;;
21305;SDS011;10812;51.838;5.838;2023-09-30T09:08:33;10.30;;;5.20;;
21305;SDS011;10812;51.838;5.838;2023-09-30T09:11:03;11.00;;;5.22;;
21305;SDS011;10812;51.838;5.838;2023-09-30T09:13:44;7.82;;;5.25;;
21305;SDS011;10812;51.838;5.838;2023-09-30T09:16:16;10.23;;;5.53;;
21305;SDS011;10812;51.838;5.838;2023-09-30T09:18:46;9.82;;;5.75;;
21305;SDS011;10812;51.838;5.838;2023-09-30T09:21:14;8.48;;;5.55;;
21305;SDS011;10812;51.838;5.838;2023-09-30T09:23:46;7.97;;;5.88;;
21305;SDS011;10812;51.838;5.838;2023-09-30T09:26:24;11.82;;;6.72;;
21305;SDS011;10812;51.838;5.838;2023-09-30T09:28:56;11.40;;;5.15;;
21305;SDS011;10812;51.838;5.838;2023-09-30T09:31:26;10.40;;;5.50;;
21305;SDS011;10812;51.838;5.838;2023-09-30T09:33:55;9.35;;;5.72;;
21305;SDS011;10812;51.838;5.838;2023-09-30T09:36:37;11.38;;;5.75;;
21305;SDS011;10812;51.838;5.838;2023-09-30T09:42:36;15.00;;;6.13;;
21305;SDS011;10812;51.838;5.838;2023-09-30T09:45:05;12.70;;;5.72;;
21305;SDS011;10812;51.838;5.838;2023-09-30T09:47:34;11.00;;;5.53;;
21305;SDS011;10812;51.838;5.838;2023-09-30T09:50:04;9.43;;;4.53;;
21305;SDS011;10812;51.838;5.838;2023-09-30T09:52:33;8.55;;;5.07;;
21305;SDS011;10812;51.838;5.838;2023-09-30T09:55:02;11.90;;;5.65;;
21305;SDS011;10812;51.838;5.838;2023-09-30T09:57:31;8.10;;;4.60;;
21305;SDS011;10812;51.838;5.838;2023-09-30T10:00:02;10.25;;;5.45;;
21305;SDS011;10812;51.838;5.838;2023-09-30T10:02:32;9.48;;;5.22;;
21305;SDS011;10812;51.838;5.838;2023-09-30T10:05:00;9.38;;;4.80;;
21305;SDS011;10812;51.838;5.838;2023-09-30T10:07:33;9.82;;;4.80;;
21305;SDS011;10812;51.838;5.838;2023-09-30T10:10:05;9.10;;;4.07;;
21305;SDS011;10812;51.838;5.838;2023-09-30T10:12:39;7.55;;;4.38;;
21305;SDS011;10812;51.838;5.838;2023-09-30T10:18:07;15.02;;;4.20;;
21305;SDS011;10812;51.838;5.838;2023-09-30T10:20:41;9.18;;;4.43;;
21305;SDS011;10812;51.838;5.838;2023-09-30T10:23:18;12.13;;;5.13;;
21305;SDS011;10812;51.838;5.838;2023-09-30T10:25:48;9.90;;;4.25;;
21305;SDS011;10812;51.838;5.838;2023-09-30T10:28:36;10.50;;;4.40;;
21305;SDS011;10812;51.838;5.838;2023-09-30T10:31:10;10.43;;;4.43;;
21305;SDS011;10812;51.838;5.838;2023-09-30T10:36:48;10.85;;;4.75;;
21305;SDS011;10812;51.838;5.838;2023-09-30T10:51:10;10.10;;;3.80;;
21305;SDS011;10812;51.838;5.838;2023-09-30T10:53:41;9.57;;;3.88;;
21305;SDS011;10812;51.838;5.838;2023-09-30T10:56:11;7.63;;;3.90;;
21305;SDS011;10812;51.838;5.838;2023-09-30T10:58:40;7.25;;;3.08;;
21305;SDS011;10812;51.838;5.838;2023-09-30T11:01:09;5.95;;;3.55;;
21305;SDS011;10812;51.838;5.838;2023-09-30T11:03:39;5.75;;;3.40;;
21305;SDS011;10812;51.838;5.838;2023-09-30T11:06:10;5.28;;;2.85;;
21305;SDS011;10812;51.838;5.838;2023-09-30T11:08:40;7.00;;;3.20;;
21305;SDS011;10812;51.838;5.838;2023-09-30T11:11:13;7.68;;;2.65;;
21305;SDS011;10812;51.838;5.838;2023-09-30T11:13:41;7.72;;;3.28;;
21305;SDS011;10812;51.838;5.838;2023-09-30T11:16:09;9.50;;;2.97;;
21305;SDS011;10812;51.838;5.838;2023-09-30T11:22:27;6.53;;;3.03;;
21305;SDS011;10812;51.838;5.838;2023-09-30T11:24:56;7.90;;;3.72;;
21305;SDS011;10812;51.838;5.838;2023-09-30T11:27:25;8.85;;;2.90;;
21305;SDS011;10812;51.838;5.838;2023-09-30T11:29:53;4.93;;;2.35;;
21305;SDS011;10812;51.838;5.838;2023-09-30T11:32:25;6.10;;;2.53;;
21305;SDS011;10812;51.838;5.838;2023-09-30T11:34:54;8.32;;;2.83;;
21305;SDS011;10812;51.838;5.838;2023-09-30T11:37:23;7.05;;;2.55;;
21305;SDS011;10812;51.838;5.838;2023-09-30T11:39:52;5.93;;;2.75;;
21305;SDS011;10812;51.838;5.838;2023-09-30T11:42:20;7.57;;;3.30;;
21305;SDS011;10812;51.838;5.838;2023-09-30T11:44:48;5.20;;;2.42;;
21305;SDS011;10812;51.838;5.838;2023-09-30T11:47:27;7.82;;;2.63;;
21305;SDS011;10812;51.838;5.838;2023-09-30T11:49:57;7.47;;;3.10;;
21305;SDS011;10812;51.838;5.838;2023-09-30T11:52:26;6.43;;;2.90;;
21305;SDS011;10812;51.838;5.838;2023-09-30T11:54:56;5.68;;;3.00;;
21305;SDS011;10812;51.838;5.838;2023-09-30T11:57:24;7.05;;;3.15;;
21305;SDS011;10812;51.838;5.838;2023-09-30T11:59:53;5.10;;;2.40;;
21305;SDS011;10812;51.838;5.838;2023-09-30T12:02:21;5.03;;;2.30;;
21305;SDS011;10812;51.838;5.838;2023-09-30T12:04:49;7.53;;;2.17;;
21305;SDS011;10812;51.838;5.838;2023-09-30T12:07:17;6.30;;;2.53;;
21305;SDS011;10812;51.838;5.838;2023-09-30T12:09:46;6.38;;;2.60;;
21305;SDS011;10812;51.838;5.838;2023-09-30T12:12:15;6.05;;;2.33;;
21305;SDS011;10812;51.838;5.838;2023-09-30T12:14:44;6.40;;;3.00;;
21305;SDS011;10812;51.838;5.838;2023-09-30T12:17:12;8.05;;;3.17;;
21305;SDS011;10812;51.838;5.838;2023-09-30T12:19:40;8.02;;;2.78;;
21305;SDS011;10812;51.838;5.838;2023-09-30T12:25:38;6.00;;;2.50;;
21305;SDS011;10812;51.838;5.838;2023-09-30T12:28:07;7.38;;;3.28;;
21305;SDS011;10812;51.838;5.838;2023-09-30T12:30:36;7.10;;;3.22;;
21305;SDS011;10812;51.838;5.838;2023-09-30T12:33:04;6.93;;;3.00;;
21305;SDS011;10812;51.838;5.838;2023-09-30T12:35:33;4.93;;;2.50;;
21305;SDS011;10812;51.838;5.838;2023-09-30T12:38:01;5.85;;;3.25;;
21305;SDS011;10812;51.838;5.838;2023-09-30T12:40:30;7.25;;;2.42;;
21305;SDS011;10812;51.838;5.838;2023-09-30T12:42:58;7.80;;;2.95;;
21305;SDS011;10812;51.838;5.838;2023-09-30T12:45:27;6.47;;;2.63;;
21305;SDS011;10812;51.838;5.838;2023-09-30T12:47:55;7.43;;;2.70;;
21305;SDS011;10812;51.838;5.838;2023-09-30T12:50:23;7.55;;;3.17;;
21305;SDS011;10812;51.838;5.838;2023-09-30T12:52:51;5.10;;;2.47;;
21305;SDS011;10812;51.838;5.838;2023-09-30T12:55:19;7.55;;;3.50;;
21305;SDS011;10812;51.838;5.838;2023-09-30T12:57:47;5.65;;;3.00;;
21305;SDS011;10812;51.838;5.838;2023-09-30T13:00:16;5.50;;;3.13;;
21305;SDS011;10812;51.838;5.838;2023-09-30T13:02:46;7.18;;;2.97;;
21305;SDS011;10812;51.838;5.838;2023-09-30T13:05:14;3.92;;;2.60;;
21305;SDS011;10812;51.838;5.838;2023-09-30T13:07:43;6.22;;;2.90;;
21305;SDS011;10812;51.838;5.838;2023-09-30T13:10:12;7.80;;;3.05;;
21305;SDS011;10812;51.838;5.838;2023-09-30T13:16:28;7.10;;;2.85;;
21305;SDS011;10812;51.838;5.838;2023-09-30T13:18:57;5.85;;;2.75;;
21305;SDS011;10812;51.838;5.838;2023-09-30T13:21:26;6.05;;;2.95;;
21305;SDS011;10812;51.838;5.838;2023-09-30T13:23:54;6.15;;;3.45;;
21305;SDS011;10812;51.838;5.838;2023-09-30T13:26:22;7.72;;;3.72;;
21305;SDS011;10812;51.838;5.838;2023-09-30T13:28:52;6.90;;;3.40;;
21305;SDS011;10812;51.838;5.838;2023-09-30T13:31:20;7.28;;;3.25;;
21305;SDS011;10812;51.838;5.838;2023-09-30T13:33:49;8.90;;;3.28;;
21305;SDS011;10812;51.838;5.838;2023-09-30T13:36:18;4.70;;;2.80;;
21305;SDS011;10812;51.838;5.838;2023-09-30T13:38:46;7.25;;;3.47;;
21305;SDS011;10812;51.838;5.838;2023-09-30T13:41:15;10.38;;;4.00;;
21305;SDS011;10812;51.838;5.838;2023-09-30T13:43:43;10.50;;;3.70;;
21305;SDS011;10812;51.838;5.838;2023-09-30T13:46:11;8.73;;;3.90;;
21305;SDS011;10812;51.838;5.838;2023-09-30T13:48:39;6.00;;;3.33;;
21305;SDS011;10812;51.838;5.838;2023-09-30T13:51:08;8.40;;;3.60;;
21305;SDS011;10812;51.838;5.838;2023-09-30T13:53:39;6.07;;;3.40;;
21305;SDS011;10812;51.838;5.838;2023-09-30T13:56:09;9.20;;;4.30;;
21305;SDS011;10812;51.838;5.838;2023-09-30T13:58:38;8.77;;;4.22;;
21305;SDS011;10812;51.838;5.838;2023-09-30T14:01:06;6.72;;;3.60;;
21305;SDS011;10812;51.838;5.838;2023-09-30T14:03:34;7.55;;;3.72;;
21305;SDS011;10812;51.838;5.838;2023-09-30T14:06:02;4.97;;;3.17;;
21305;SDS011;10812;51.838;5.838;2023-09-30T14:08:38;5.85;;;3.00;;
21305;SDS011;10812;51.838;5.838;2023-09-30T14:11:09;7.20;;;3.15;;
21305;SDS011;10812;51.838;5.838;2023-09-30T14:13:37;7.47;;;3.10;;
21305;SDS011;10812;51.838;5.838;2023-09-30T14:16:06;5.38;;;3.08;;
21305;SDS011;10812;51.838;5.838;2023-09-30T14:18:34;10.13;;;3.42;;
21305;SDS011;10812;51.838;5.838;2023-09-30T14:21:02;7.65;;;3.55;;
21305;SDS011;10812;51.838;5.838;2023-09-30T14:23:30;7.30;;;3.65;;
21305;SDS011;10812;51.838;5.838;2023-09-30T14:26:00;5.70;;;2.92;;
21305;SDS011;10812;51.838;5.838;2023-09-30T14:28:32;8.55;;;3.33;;
21305;SDS011;10812;51.838;5.838;2023-09-30T14:31:02;7.00;;;2.60;;
21305;SDS011;10812;51.838;5.838;2023-09-30T14:33:31;7.65;;;3.60;;
21305;SDS011;10812;51.838;5.838;2023-09-30T14:36:00;8.40;;;3.78;;
21305;SDS011;10812;51.838;5.838;2023-09-30T14:38:32;8.95;;;3.65;;
21305;SDS011;10812;51.838;5.838;2023-09-30T14:41:02;6.68;;;3.38;;
21305;SDS011;10812;51.838;5.838;2023-09-30T14:43:34;5.85;;;2.90;;
21305;SDS011;10812;51.838;5.838;2023-09-30T14:46:02;6.35;;;3.30;;
21305;SDS011;10812;51.838;5.838;2023-09-30T14:48:30;7.68;;;3.30;;
21305;SDS011;10812;51.838;5.838;2023-09-30T14:50:58;6.05;;;3.05;;
21305;SDS011;10812;51.838;5.838;2023-09-30T14:53:27;6.20;;;2.67;;
21305;SDS011;10812;51.838;5.838;2023-09-30T14:55:55;7.00;;;2.72;;
21305;SDS011;10812;51.838;5.838;2023-09-30T14:58:24;5.95;;;2.63;;
21305;SDS011;10812;51.838;5.838;2023-09-30T15:00:52;8.18;;;3.10;;
21305;SDS011;10812;51.838;5.838;2023-09-30T15:03:20;5.53;;;2.67;;
21305;SDS011;10812;51.838;5.838;2023-09-30T15:05:48;6.65;;;2.88;;
21305;SDS011;10812;51.838;5.838;2023-09-30T15:08:25;7.78;;;3.80;;
21305;SDS011;10812;51.838;5.838;2023-09-30T15:10:53;7.65;;;3.60;;
21305;SDS011;10812;51.838;5.838;2023-09-30T15:13:21;7.00;;;3.72;;
21305;SDS011;10812;51.838;5.838;2023-09-30T15:15:50;8.88;;;4.45;;
21305;SDS011;10812;51.838;5.838;2023-09-30T15:18:19;9.32;;;4.25;;
21305;SDS011;10812;51.838;5.838;2023-09-30T15:20:48;6.07;;;3.95;;
21305;SDS011;10812;51.838;5.838;2023-09-30T15:23:17;4.70;;;3.00;;
21305;SDS011;10812;51.838;5.838;2023-09-30T15:25:46;4.75;;;2.78;;
21305;SDS011;10812;51.838;5.838;2023-09-30T15:28:14;7.35;;;2.40;;
21305;SDS011;10812;51.838;5.838;2023-09-30T15:30:43;5.28;;;2.08;;
21305;SDS011;10812;51.838;5.838;2023-09-30T15:33:12;3.97;;;2.80;;
21305;SDS011;10812;51.838;5.838;2023-09-30T15:35:40;7.20;;;2.72;;
21305;SDS011;10812;51.838;5.838;2023-09-30T15:38:08;6.07;;;3.70;;
21305;SDS011;10812;51.838;5.838;2023-09-30T15:40:46;4.72;;;2.70;;
21305;SDS011;10812;51.838;5.838;2023-09-30T15:43:19;6.25;;;2.50;;
21305;SDS011;10812;51.838;5.838;2023-09-30T15:45:47;5.20;;;2.40;;
21305;SDS011;10812;51.838;5.838;2023-09-30T15:48:16;8.25;;;2.90;;
21305;SDS011;10812;51.838;5.838;2023-09-30T15:50:45;5.40;;;2.15;;
21305;SDS011;10812;51.838;5.838;2023-09-30T15:53:14;8.00;;;2.83;;
21305;SDS011;10812;51.838;5.838;2023-09-30T15:55:42;5.80;;;2.50;;
21305;SDS011;10812;51.838;5.838;2023-09-30T15:58:10;6.60;;;3.13;;
21305;SDS011;10812;51.838;5.838;2023-09-30T16:00:39;5.68;;;2.58;;
21305;SDS011;10812;51.838;5.838;2023-09-30T16:03:09;7.30;;;2.83;;
21305;SDS011;10812;51.838;5.838;2023-09-30T16:05:39;7.88;;;3.42;;
21305;SDS011;10812;51.838;5.838;2023-09-30T16:08:08;6.57;;;2.55;;
21305;SDS011;10812;51.838;5.838;2023-09-30T16:10:37;5.85;;;2.80;;